Time;durP1;ratioP1;P1;durP2;ratioP2;P2;SDS_P1;SDS_P2;PMS_P1;PMS_P2;Temp;Humidity;BMP_temperature;BMP_pressure;BME280_temperature;BME280_humidity;BME280_pressure;Samples;Min_cycle;Max_cycle;Signal;HPM_P1;HPM_P2
2020/12/11 05:32:36;;;;;;;1999.90;999.90;;;4.20;99.90;;;;;;5034156;23;20229;-78
2020/12/11 05:35:04;;;;;;;1999.90;999.90;;;4.20;99.90;;;;;;4978772;28;20204;-78
2020/12/11 05:37:31;;;;;;;1999.90;999.90;;;4.30;99.90;;;;;;4978597;28;20668;-77
2020/12/11 05:39:57;;;;;;;1999.90;999.90;;;4.30;99.90;;;;;;4977377;28;20200;-78
2020/12/11 05:42:26;;;;;;;1999.90;999.90;;;4.30;99.90;;;;;;4978100;28;20221;-77
2020/12/11 05:44:52;;;;;;;1999.90;999.90;;;4.10;99.90;;;;;;4978533;28;20549;-82
2020/12/11 05:47:21;;;;;;;1999.90;999.90;;;4.20;99.90;;;;;;4978551;28;20240;-77
2020/12/11 05:49:49;;;;;;;1999.90;999.90;;;4.10;99.90;;;;;;4976094;28;20208;-75
2020/12/11 05:52:17;;;;;;;1999.90;999.90;;;4.10;99.90;;;;;;4976920;28;20295;-77
2020/12/11 05:54:46;;;;;;;1999.90;999.90;;;4.20;99.90;;;;;;4976116;28;20239;-77
2020/12/11 05:57:14;;;;;;;1999.90;999.90;;;4.10;99.90;;;;;;4978527;28;20205;-78
2020/12/11 05:59:42;;;;;;;1999.90;999.90;;;4.10;99.90;;;;;;4977009;28;20584;-77
2020/12/11 06:02:10;;;;;;;1999.90;999.90;;;4.00;99.90;;;;;;4975283;28;20579;-77
2020/12/11 06:04:38;;;;;;;1999.90;999.90;;;4.00;99.90;;;;;;4974435;28;20299;-77
2020/12/11 06:07:12;;;;;;;1999.90;999.90;;;4.00;99.90;;;;;;4957035;28;20268;-79
2020/12/11 06:09:41;;;;;;;1999.90;999.90;;;3.90;99.90;;;;;;4955878;29;20225;-76
2020/12/11 06:12:11;;;;;;;1999.90;999.90;;;3.90;99.90;;;;;;4956654;29;20284;-78
2020/12/11 06:15:01;;;;;;;1999.90;999.90;;;3.80;99.90;;;;;;4957052;29;20329;-78
2020/12/11 06:17:32;;;;;;;1999.90;999.90;;;3.70;99.90;;;;;;4957509;29;20280;-77
2020/12/11 06:20:01;;;;;;;1999.90;999.90;;;3.80;99.90;;;;;;4956822;29;20252;-79
2020/12/11 06:22:29;;;;;;;1999.90;999.90;;;3.80;99.90;;;;;;4956123;29;20229;-77
2020/12/11 06:24:56;;;;;;;1999.90;999.90;;;3.80;99.90;;;;;;4955346;29;20209;-76
2020/12/11 06:27:32;;;;;;;1999.90;999.90;;;3.80;99.90;;;;;;4955083;29;20622;-77
2020/12/11 06:30:19;;;;;;;1999.90;999.90;;;3.80;99.90;;;;;;4955112;29;20215;-76
2020/12/11 06:32:48;;;;;;;1999.90;999.90;;;3.80;99.90;;;;;;4955059;29;20233;-77
2020/12/11 06:35:15;;;;;;;1999.90;999.90;;;3.80;99.90;;;;;;4956156;29;20721;-75
2020/12/11 06:37:43;;;;;;;1999.90;999.90;;;3.80;99.90;;;;;;4954949;29;20207;-76
2020/12/11 06:40:10;;;;;;;1999.90;999.90;;;3.80;99.90;;;;;;4954855;28;20745;-77
2020/12/11 06:42:44;;;;;;;1999.90;999.90;;;3.80;99.90;;;;;;4953508;29;20215;-77
2020/12/11 13:00:48;;;;;;;1999.90;999.90;;;7.80;99.90;;;;;;5820590;23;20238;-77
2020/12/11 13:06:05;;;;;;;1999.90;999.90;;;7.90;99.90;;;;;;4973807;28;20232;-77
2020/12/11 13:08:32;;;;;;;1999.90;999.90;;;7.80;99.90;;;;;;4978679;28;20279;-75
2020/12/11 13:10:59;;;;;;;1999.90;999.90;;;7.90;99.90;;;;;;4975954;28;20275;-77
2020/12/11 13:13:25;;;;;;;1999.90;999.90;;;7.80;99.90;;;;;;4975630;28;20209;-77
2020/12/11 13:15:55;;;;;;;1999.90;999.90;;;7.80;99.90;;;;;;4976276;28;20665;-75
2020/12/11 13:18:23;;;;;;;1999.90;999.90;;;7.80;99.90;;;;;;4975668;28;20200;-75
2020/12/11 13:20:50;;;;;;;1999.90;999.90;;;7.90;99.90;;;;;;4975774;28;20225;-75
2020/12/11 13:28:40;;;;;;;1999.90;999.90;;;8.00;99.90;;;;;;4975448;28;20228;-75
2020/12/11 13:31:08;;;;;;;1999.90;999.90;;;7.90;99.90;;;;;;4975662;28;20221;-75
2020/12/11 13:33:35;;;;;;;1999.90;999.90;;;7.80;99.90;;;;;;4975533;28;20204;-75
2020/12/11 13:36:02;;;;;;;1999.90;999.90;;;7.80;99.90;;;;;;4975616;28;20582;-75
2020/12/11 13:38:29;;;;;;;1999.90;999.90;;;7.60;99.90;;;;;;4975521;28;20211;-76
2020/12/11 13:40:56;;;;;;;1999.90;999.90;;;7.50;99.90;;;;;;4975534;28;20224;-75
2020/12/11 13:43:23;;;;;;;1999.90;999.90;;;7.40;99.90;;;;;;4975439;28;20211;-75
2020/12/11 13:45:50;;;;;;;1999.90;999.90;;;7.30;99.90;;;;;;4975609;28;20243;-75
2020/12/11 13:48:17;;;;;;;1999.90;999.90;;;7.30;99.90;;;;;;4975057;28;20697;-75
2020/12/11 13:50:44;;;;;;;1999.90;999.90;;;7.30;99.90;;;;;;4975275;28;20229;-75
2020/12/11 13:53:11;;;;;;;1999.90;999.90;;;7.20;99.90;;;;;;4975481;28;20205;-75
2020/12/11 13:55:40;;;;;;;1999.90;999.90;;;7.20;99.90;;;;;;4975134;28;20623;-75
2020/12/11 13:58:12;;;;;;;1999.90;999.90;;;7.10;99.90;;;;;;4975111;28;20212;-75
2020/12/11 14:00:39;;;;;;;1999.90;999.90;;;7.20;99.90;;;;;;4974975;28;20240;-75
2020/12/11 14:03:07;;;;;;;1999.90;999.90;;;7.10;99.90;;;;;;4975009;28;20217;-75
2020/12/11 14:05:35;;;;;;;1999.90;999.90;;;7.10;99.90;;;;;;4974744;28;20205;-75
2020/12/11 14:08:02;;;;;;;1999.90;999.90;;;7.20;99.90;;;;;;4974901;28;20296;-75
2020/12/11 14:10:29;;;;;;;1999.90;999.90;;;7.30;99.90;;;;;;4975068;28;20279;-75
2020/12/11 14:12:56;;;;;;;1999.90;999.90;;;7.30;99.90;;;;;;4974982;28;20559;-75
2020/12/11 14:15:23;;;;;;;1999.90;999.90;;;7.30;99.90;;;;;;4974746;28;20204;-75
2020/12/11 14:18:00;;;;;;;1999.90;999.90;;;7.30;99.90;;;;;;4974471;28;20217;-75
2020/12/11 14:20:33;;;;;;;1999.90;999.90;;;7.30;99.90;;;;;;4974636;28;20558;-75
2020/12/11 14:23:05;;;;;;;1999.90;999.90;;;7.20;99.90;;;;;;4973918;28;20201;-75
2020/12/11 14:25:32;;;;;;;1999.90;999.90;;;7.10;99.90;;;;;;4974147;28;20205;-75
2020/12/11 14:27:59;;;;;;;1999.90;999.90;;;7.10;99.90;;;;;;4973522;28;20251;-75
2020/12/11 14:30:26;;;;;;;1999.90;999.90;;;7.20;99.90;;;;;;4973950;28;20461;-75
2020/12/11 14:32:53;;;;;;;1999.90;999.90;;;7.30;99.90;;;;;;4971130;28;20729;-75
2020/12/11 14:35:20;;;;;;;1999.90;999.90;;;7.40;99.90;;;;;;4974140;28;20228;-75
2020/12/11 14:37:48;;;;;;;1999.90;999.90;;;7.40;99.90;;;;;;4974035;28;20267;-74
2020/12/11 14:40:17;;;;;;;1999.90;999.90;;;7.40;99.90;;;;;;4972328;28;20196;-74
2020/12/11 14:42:44;;;;;;;1999.90;999.90;;;7.40;99.90;;;;;;4973337;28;20193;-75
2020/12/11 14:45:11;;;;;;;1999.90;999.90;;;7.40;99.90;;;;;;4972100;28;20213;-75
2020/12/11 14:47:38;;;;;;;1999.90;999.90;;;7.50;99.90;;;;;;4972918;28;20213;-75
2020/12/11 14:50:05;;;;;;;1999.90;999.90;;;7.30;99.90;;;;;;4973613;28;20230;-77
2020/12/11 14:52:32;;;;;;;1999.90;999.90;;;7.30;99.90;;;;;;4974169;28;20220;-76
2020/12/11 14:54:59;;;;;;;1999.90;999.90;;;7.40;99.90;;;;;;4974131;28;20213;-75
2020/12/11 14:57:27;;;;;;;1999.90;999.90;;;7.40;99.90;;;;;;4973374;28;20197;-76
2020/12/11 15:03:35;;;;;;;1999.90;999.90;;;7.40;99.90;;;;;;4954338;29;20192;-76
2020/12/11 15:06:02;;;;;;;1999.90;999.90;;;7.20;99.90;;;;;;4954397;29;20256;-76
2020/12/11 15:08:29;;;;;;;1999.90;999.90;;;7.10;99.90;;;;;;4954384;29;20225;-75
2020/12/11 15:10:55;;;;;;;1999.90;999.90;;;7.10;99.90;;;;;;4954648;29;20282;-76
2020/12/11 15:13:24;;;;;;;1999.90;999.90;;;7.10;99.90;;;;;;4955302;29;20205;-75
2020/12/11 15:15:51;;;;;;;1999.90;999.90;;;7.10;99.90;;;;;;4954559;29;20712;-75
2020/12/11 15:18:20;;;;;;;1999.90;999.90;;;7.20;99.90;;;;;;4954078;29;20205;-75
2020/12/11 15:20:48;;;;;;;1999.90;999.90;;;7.10;99.90;;;;;;4954358;29;20650;-75
2020/12/11 15:23:15;;;;;;;1999.90;999.90;;;7.20;99.90;;;;;;4954319;29;20209;-75
2020/12/11 15:25:43;;;;;;;1999.90;999.90;;;7.10;99.90;;;;;;4954270;29;20201;-75
2020/12/11 15:28:10;;;;;;;1999.90;999.90;;;7.10;99.90;;;;;;4969040;28;20745;-75
2020/12/11 15:30:38;;;;;;;1999.90;999.90;;;7.10;99.90;;;;;;4972988;28;20280;-77
2020/12/11 15:33:05;;;;;;;1999.90;999.90;;;7.10;99.90;;;;;;4967837;28;20204;-78
2020/12/11 15:35:32;;;;;;;1999.90;999.90;;;7.20;99.90;;;;;;4972497;28;20628;-78
2020/12/11 15:37:58;;;;;;;1999.90;999.90;;;7.30;99.90;;;;;;4973259;28;20237;-78
2020/12/11 15:40:25;;;;;;;1999.90;999.90;;;7.30;99.90;;;;;;4972762;28;20189;-78
2020/12/11 15:42:52;;;;;;;1999.90;999.90;;;7.40;99.90;;;;;;4973153;28;20313;-77
2020/12/11 15:45:19;;;;;;;1999.90;999.90;;;7.40;99.90;;;;;;4973242;28;20251;-77
2020/12/11 15:47:47;;;;;;;1999.90;999.90;;;7.30;99.90;;;;;;4972412;28;20200;-76
2020/12/11 15:50:23;;;;;;;1999.90;999.90;;;7.20;99.90;;;;;;4972719;28;20228;-77
2020/12/11 15:52:53;;;;;;;1999.90;999.90;;;7.10;99.90;;;;;;4970998;28;20212;-75
2020/12/11 15:55:20;;;;;;;1999.90;999.90;;;7.10;99.90;;;;;;4972307;28;20208;-78
2020/12/11 15:57:47;;;;;;;1999.90;999.90;;;7.10;99.90;;;;;;4972605;28;20200;-75
2020/12/11 16:00:14;;;;;;;1999.90;999.90;;;7.10;99.90;;;;;;4977407;28;20251;-75
2020/12/11 16:02:41;;;;;;;1999.90;999.90;;;7.00;99.90;;;;;;4989100;28;20254;-76
2020/12/11 16:05:10;;;;;;;1999.90;999.90;;;7.00;99.90;;;;;;4992296;28;20207;-75
2020/12/11 16:07:37;;;;;;;1999.90;999.90;;;7.00;99.90;;;;;;4988967;28;20213;-75
2020/12/11 16:10:04;;;;;;;1999.90;999.90;;;6.90;99.90;;;;;;4980813;28;20697;-75
2020/12/11 16:12:31;;;;;;;1999.90;999.90;;;7.00;99.90;;;;;;4982364;28;20363;-75
2020/12/11 16:14:58;;;;;;;1999.90;999.90;;;6.90;99.90;;;;;;4987572;28;20251;-74
2020/12/11 16:17:25;;;;;;;1999.90;999.90;;;6.90;99.90;;;;;;4982161;28;20199;-75
2020/12/11 16:19:52;;;;;;;1999.90;999.90;;;6.80;99.90;;;;;;4982298;28;20674;-76
2020/12/11 16:22:19;;;;;;;1999.90;999.90;;;6.90;99.90;;;;;;4980656;28;20697;-74
2020/12/11 16:24:46;;;;;;;1999.90;999.90;;;6.80;99.90;;;;;;4981992;28;20661;-75
2020/12/11 16:27:13;;;;;;;1999.90;999.90;;;6.90;99.90;;;;;;4982454;28;20228;-75
2020/12/11 16:29:40;;;;;;;1999.90;999.90;;;6.80;99.90;;;;;;4980524;28;20696;-74
2020/12/11 16:32:07;;;;;;;1999.90;999.90;;;6.90;99.90;;;;;;4981893;28;20211;-74
2020/12/11 16:34:36;;;;;;;1999.90;999.90;;;6.90;99.90;;;;;;4982855;28;20613;-75
2020/12/11 16:37:03;;;;;;;1999.90;999.90;;;6.80;99.90;;;;;;4978937;28;20197;-74
2020/12/11 16:39:31;;;;;;;1999.90;999.90;;;6.90;99.90;;;;;;4981333;28;20252;-74
2020/12/11 16:42:00;;;;;;;1999.90;999.90;;;6.90;99.90;;;;;;4977788;28;20275;-75
2020/12/11 16:44:31;;;;;;;1999.90;999.90;;;6.90;99.90;;;;;;4981459;28;20252;-74
2020/12/11 16:47:02;;;;;;;1999.90;999.90;;;6.80;99.90;;;;;;4982031;28;20666;-74
2020/12/11 16:49:32;;;;;;;1999.90;999.90;;;6.80;99.90;;;;;;4993637;28;20590;-75
2020/12/11 16:52:00;;;;;;;1999.90;999.90;;;6.70;99.90;;;;;;4995506;28;20322;-75
2020/12/11 16:54:26;;;;;;;1999.90;999.90;;;6.70;99.90;;;;;;4995476;28;20668;-75
2020/12/11 16:56:54;;;;;;;1999.90;999.90;;;6.60;99.90;;;;;;4990025;28;20204;-77
2020/12/11 16:59:28;;;;;;;1999.90;999.90;;;6.60;99.90;;;;;;4975722;28;20259;-76
2020/12/11 17:01:58;;;;;;;1999.90;999.90;;;6.50;99.90;;;;;;4977958;28;20291;-76
2020/12/11 17:04:40;;;;;;;1999.90;999.90;;;6.40;99.90;;;;;;4983720;28;20200;-76
2020/12/11 17:07:09;;;;;;;1999.90;999.90;;;6.50;99.90;;;;;;4956597;29;20559;-75
2020/12/11 17:09:40;;;;;;;1999.90;999.90;;;6.40;99.90;;;;;;4956484;29;20229;-75
2020/12/11 17:12:09;;;;;;;1999.90;999.90;;;6.40;99.90;;;;;;4956150;29;20228;-76
2020/12/11 17:14:36;;;;;;;1999.90;999.90;;;6.40;99.90;;;;;;4956326;29;20205;-75
2020/12/11 17:17:06;;;;;;;1999.90;999.90;;;6.40;99.90;;;;;;4956359;29;20209;-76
2020/12/11 17:19:34;;;;;;;1999.90;999.90;;;6.40;99.90;;;;;;4956708;29;20182;-81
2020/12/11 17:22:03;;;;;;;1999.90;999.90;;;6.30;99.90;;;;;;4956631;29;20291;-77
2020/12/11 17:24:30;;;;;;;1999.90;999.90;;;6.30;99.90;;;;;;4962735;28;20724;-75
2020/12/11 17:26:58;;;;;;;1999.90;999.90;;;6.30;99.90;;;;;;4975630;28;20243;-75
2020/12/11 17:29:27;;;;;;;1999.90;999.90;;;6.30;99.90;;;;;;4975180;28;20789;-75
2020/12/11 17:32:07;;;;;;;1999.90;999.90;;;6.40;99.90;;;;;;4977214;28;20217;-78
2020/12/11 17:34:38;;;;;;;1999.90;999.90;;;6.40;99.90;;;;;;4986046;28;20203;-79
2020/12/11 17:37:08;;;;;;;1999.90;999.90;;;6.40;99.90;;;;;;4985382;28;20265;-79
2020/12/11 17:39:35;;;;;;;1999.90;999.90;;;6.30;99.90;;;;;;4988359;28;20208;-78
2020/12/11 17:42:02;;;;;;;1999.90;999.90;;;6.30;99.90;;;;;;5001327;28;20282;-79
2020/12/11 17:44:31;;;;;;;1999.90;999.90;;;6.30;99.90;;;;;;4998089;28;20208;-78
2020/12/11 17:46:58;;;;;;;1999.90;999.90;;;6.30;99.90;;;;;;4997815;28;20204;-78
2020/12/11 17:49:26;;;;;;;1999.90;999.90;;;6.30;99.90;;;;;;4985934;28;20230;-77
2020/12/11 17:51:56;;;;;;;1999.90;999.90;;;6.20;99.90;;;;;;4981574;28;20236;-78
2020/12/11 17:54:23;;;;;;;1999.90;999.90;;;6.20;99.90;;;;;;4977162;28;20235;-77
2020/12/11 17:56:50;;;;;;;1999.90;999.90;;;6.20;99.90;;;;;;4984667;28;20201;-79
2020/12/11 17:59:17;;;;;;;1999.90;999.90;;;6.20;99.90;;;;;;4985339;28;20572;-78
2020/12/11 18:01:45;;;;;;;1999.90;999.90;;;6.20;99.90;;;;;;4983672;28;20299;-79
2020/12/11 18:04:12;;;;;;;1999.90;999.90;;;6.20;99.90;;;;;;4981347;28;20204;-80
2020/12/11 18:06:39;;;;;;;1999.90;999.90;;;6.20;99.90;;;;;;4978928;28;20204;-77
2020/12/11 18:09:07;;;;;;;1999.90;999.90;;;6.20;99.90;;;;;;4956401;29;20757;-78
2020/12/11 18:11:34;;;;;;;1999.90;999.90;;;6.10;99.90;;;;;;4981419;28;20224;-77
2020/12/11 18:14:02;;;;;;;1999.90;999.90;;;6.10;99.90;;;;;;4976558;28;20204;-82
2020/12/11 18:16:29;;;;;;;1999.90;999.90;;;6.10;99.90;;;;;;4980196;28;20276;-81
2020/12/11 18:18:58;;;;;;;1999.90;999.90;;;6.10;99.90;;;;;;4975826;28;20213;-79
2020/12/11 18:21:29;;;;;;;1999.90;999.90;;;6.10;99.90;;;;;;4976149;28;20221;-80
2020/12/11 18:23:58;;;;;;;1999.90;999.90;;;6.10;99.90;;;;;;4979332;28;20259;-77
2020/12/11 18:26:26;;;;;;;1999.90;999.90;;;6.00;99.90;;;;;;4978073;28;20201;-79
2020/12/11 18:28:53;;;;;;;1999.90;999.90;;;6.00;99.90;;;;;;4971403;28;20200;-79
2020/12/11 18:31:20;;;;;;;1999.90;999.90;;;6.10;99.90;;;;;;4985886;28;20593;-80
2020/12/11 18:33:47;;;;;;;1999.90;999.90;;;6.20;99.90;;;;;;4990508;28;20196;-79
2020/12/11 18:36:15;;;;;;;1999.90;999.90;;;6.20;99.90;;;;;;4983298;28;20713;-79
2020/12/11 18:38:42;;;;;;;1999.90;999.90;;;6.20;99.90;;;;;;4976866;28;20205;-77
2020/12/11 18:41:09;;;;;;;1999.90;999.90;;;6.10;99.90;;;;;;4977026;28;20311;-77
2020/12/11 18:43:37;;;;;;;1999.90;999.90;;;6.10;99.90;;;;;;4977611;28;20207;-77
2020/12/11 18:46:05;;;;;;;1999.90;999.90;;;6.10;99.90;;;;;;4977990;28;20624;-77
2020/12/11 18:48:33;;;;;;;1999.90;999.90;;;6.10;99.90;;;;;;4977567;28;20219;-77
2020/12/11 18:51:00;;;;;;;1999.90;999.90;;;6.00;99.90;;;;;;4978496;28;20248;-77
2020/12/11 18:53:28;;;;;;;1999.90;999.90;;;5.90;99.90;;;;;;4977923;28;20271;-77
2020/12/11 18:55:57;;;;;;;1999.90;999.90;;;5.80;99.90;;;;;;4978214;28;20220;-77
2020/12/11 18:58:25;;;;;;;1999.90;999.90;;;5.80;99.90;;;;;;4977829;28;20204;-77
2020/12/11 19:00:52;;;;;;;1999.90;999.90;;;5.80;99.90;;;;;;4976385;28;20624;-78
2020/12/11 19:03:19;;;;;;;1999.90;999.90;;;5.80;99.90;;;;;;4976660;28;20700;-77
2020/12/11 19:05:48;;;;;;;1999.90;999.90;;;5.70;99.90;;;;;;4977416;28;20262;-78
2020/12/11 19:08:15;;;;;;;1999.90;999.90;;;5.70;99.90;;;;;;4978573;28;20204;-78
2020/12/11 19:10:43;;;;;;;1999.90;999.90;;;5.80;99.90;;;;;;4977922;28;20604;-78
2020/12/11 19:13:10;;;;;;;1999.90;999.90;;;5.70;99.90;;;;;;4979792;28;20204;-78
2020/12/11 19:15:37;;;;;;;1999.90;999.90;;;5.70;99.90;;;;;;4982700;23;20225;-76
2020/12/11 19:18:05;;;;;;;1999.90;999.90;;;5.60;99.90;;;;;;4963430;28;20192;-75
2020/12/11 19:20:33;;;;;;;1999.90;999.90;;;5.60;99.90;;;;;;4957652;28;20194;-74
2020/12/11 19:23:00;;;;;;;1999.90;999.90;;;5.50;99.90;;;;;;4951551;29;20725;-74
2020/12/11 19:25:27;;;;;;;1999.90;999.90;;;5.50;99.90;;;;;;4944707;29;20634;-73
2020/12/11 19:27:55;;;;;;;1999.90;999.90;;;5.50;99.90;;;;;;4934417;29;20202;-74
2020/12/11 19:30:22;;;;;;;1999.90;999.90;;;5.50;99.90;;;;;;4933408;29;20224;-75
2020/12/11 19:32:52;;;;;;;1999.90;999.90;;;5.40;99.90;;;;;;4933878;29;20210;-76
2020/12/11 19:35:19;;;;;;;1999.90;999.90;;;5.40;99.90;;;;;;4934390;29;20714;-74
2020/12/11 19:37:46;;;;;;;1999.90;999.90;;;5.40;99.90;;;;;;4933878;29;20206;-74
2020/12/11 19:40:14;;;;;;;1999.90;999.90;;;5.40;99.90;;;;;;4934493;29;20241;-74
2020/12/11 19:42:41;;;;;;;1999.90;999.90;;;5.30;99.90;;;;;;4934399;29;20824;-76
2020/12/11 19:45:08;;;;;;;1999.90;999.90;;;5.30;99.90;;;;;;4934225;29;20226;-76
2020/12/11 19:47:35;;;;;;;1999.90;999.90;;;5.20;99.90;;;;;;4934424;29;20718;-76
2020/12/11 19:50:02;;;;;;;1999.90;999.90;;;;;;;;;;4935113;29;20229;-76
2020/12/11 19:52:29;;;;;;;1999.90;999.90;;;5.20;99.90;;;;;;4934358;29;20202;-76
2020/12/11 19:54:56;;;;;;;1999.90;999.90;;;5.10;99.90;;;;;;4934369;29;20257;-76
2020/12/11 19:57:23;;;;;;;1999.90;999.90;;;5.10;99.90;;;;;;4934208;29;20209;-76
2020/12/11 19:59:50;;;;;;;1999.90;999.90;;;5.10;99.90;;;;;;4933816;29;20261;-75
2020/12/11 20:02:18;;;;;;;1999.90;999.90;;;5.00;99.90;;;;;;4934454;29;20210;-76
2020/12/11 20:04:45;;;;;;;1999.90;999.90;;;5.00;99.90;;;;;;4934103;29;20313;-76
2020/12/11 20:09:29;;;;;;;1999.90;999.90;;;5.00;99.90;;;;;;4934246;29;20202;-76
2020/12/11 20:10:10;;;;;;;1999.90;999.90;;;5.00;99.90;;;;;;4934179;29;20595;-74
2020/12/11 20:12:39;;;;;;;1999.90;999.90;;;5.00;99.90;;;;;;4934334;29;20212;-75
2020/12/11 20:15:07;;;;;;;1999.90;999.90;;;5.00;99.90;;;;;;4933965;29;20321;-75
2020/12/11 20:17:35;;;;;;;1999.90;999.90;;;4.90;99.90;;;;;;4934103;29;20693;-74
2020/12/11 20:20:03;;;;;;;1999.90;999.90;;;4.90;99.90;;;;;;4936084;29;20261;-74
2020/12/11 20:22:31;;;;;;;1999.90;999.90;;;4.90;99.90;;;;;;4938528;29;20253;-74
2020/12/11 20:24:58;;;;;;;1999.90;999.90;;;4.90;99.90;;;;;;4937993;29;20309;-75
2020/12/11 20:27:25;;;;;;;1999.90;999.90;;;5.00;99.90;;;;;;4937742;29;20668;-76
2020/12/11 20:29:52;;;;;;;1999.90;999.90;;;4.90;99.90;;;;;;4937717;29;20225;-75
2020/12/11 20:32:19;;;;;;;1999.90;999.90;;;4.90;99.90;;;;;;4937973;29;20206;-75
2020/12/11 20:34:47;;;;;;;1999.90;999.90;;;4.90;99.90;;;;;;4938036;29;20222;-76
2020/12/11 20:37:14;;;;;;;1999.90;999.90;;;4.90;99.90;;;;;;4937783;29;20210;-76
2020/12/11 20:39:41;;;;;;;1999.90;999.90;;;4.80;99.90;;;;;;4937507;29;20202;-75
2020/12/11 20:42:08;;;;;;;1999.90;999.90;;;4.90;99.90;;;;;;4937974;29;20210;-75
2020/12/11 20:44:35;;;;;;;1999.90;999.90;;;4.80;99.90;;;;;;4937539;29;20726;-75
2020/12/11 20:47:04;;;;;;;1999.90;999.90;;;4.80;99.90;;;;;;4937846;29;20210;-75
2020/12/11 20:49:31;;;;;;;1999.90;999.90;;;4.80;99.90;;;;;;4937385;29;20205;-75
2020/12/11 20:51:59;;;;;;;1999.90;999.90;;;4.80;99.90;;;;;;4937422;29;20217;-76
2020/12/11 20:54:26;;;;;;;1999.90;999.90;;;4.80;99.90;;;;;;4938351;29;20647;-74
2020/12/11 20:56:53;;;;;;;1999.90;999.90;;;4.80;99.90;;;;;;4938218;29;20567;-74
2020/12/11 20:59:20;;;;;;;1999.90;999.90;;;4.80;99.90;;;;;;4937389;29;20210;-74
2020/12/11 21:01:49;;;;;;;1999.90;999.90;;;4.80;99.90;;;;;;4937493;29;20206;-74
2020/12/11 21:04:16;;;;;;;1999.90;999.90;;;4.80;99.90;;;;;;4937504;29;20663;-77
2020/12/11 21:06:45;;;;;;;1999.90;999.90;;;4.80;99.90;;;;;;4937562;29;20281;-75
2020/12/11 21:09:17;;;;;;;1999.90;999.90;;;4.80;99.90;;;;;;4937816;29;20234;-75
2020/12/11 21:11:45;;;;;;;1999.90;999.90;;;4.70;99.90;;;;;;4938321;29;20670;-75
2020/12/11 21:14:13;;;;;;;1999.90;999.90;;;4.70;99.90;;;;;;4937517;29;20659;-75
2020/12/11 21:16:39;;;;;;;1999.90;999.90;;;4.70;99.90;;;;;;4937582;29;20234;-75
2020/12/11 21:19:07;;;;;;;1999.90;999.90;;;4.70;99.90;;;;;;4937799;29;20213;-75
2020/12/11 21:21:33;;;;;;;1999.90;999.90;;;4.70;99.90;;;;;;4938585;29;20223;-75
2020/12/11 21:24:00;;;;;;;1999.90;999.90;;;4.70;99.90;;;;;;4937923;29;20206;-76
2020/12/11 21:26:28;;;;;;;1999.90;999.90;;;4.70;99.90;;;;;;4937793;29;20250;-75
2020/12/11 21:28:56;;;;;;;1999.90;999.90;;;4.70;99.90;;;;;;4937432;29;20194;-75
2020/12/11 21:31:25;;;;;;;1999.90;999.90;;;4.70;99.90;;;;;;4936331;29;20222;-75
2020/12/11 21:36:37;;;;;;;1999.90;999.90;;;4.60;99.90;;;;;;4935142;29;20512;-75
2020/12/11 21:39:04;;;;;;;1999.90;999.90;;;4.70;99.90;;;;;;4935481;29;20249;-75
2020/12/11 21:41:32;;;;;;;1999.90;999.90;;;4.70;99.90;;;;;;4936121;29;20562;-75
2020/12/11 21:43:59;;;;;;;1999.90;999.90;;;4.70;99.90;;;;;;4948252;29;20197;-75
2020/12/11 21:46:26;;;;;;;1999.90;999.90;;;4.70;99.90;;;;;;4946025;28;20229;-75
2020/12/11 21:48:54;;;;;;;1999.90;999.90;;;4.70;99.90;;;;;;4944777;29;20234;-75
2020/12/11 21:51:28;;;;;;;1999.90;999.90;;;4.70;99.90;;;;;;4946233;29;20269;-75
2020/12/11 21:53:55;;;;;;;1999.90;999.90;;;4.60;99.90;;;;;;4946080;29;20197;-74
2020/12/11 21:56:22;;;;;;;1999.90;999.90;;;4.50;99.90;;;;;;4935499;29;20226;-74
2020/12/11 21:58:50;;;;;;;1999.90;999.90;;;4.50;99.90;;;;;;4934784;29;20574;-74
